ADDS METAR Data INFO
IDs: Format: Raw Decoded Include TAF

Data at: 2316 UTC 15 Jul 2018

KCCU 152312Z AUTO 08004KT 10SM TS BKN022 BKN029 OVC040 15/07 A3069 RMK AO2 LTG DSNT E S AND W
KCCU 152253Z AUTO 06006KT 10SM TS SCT024 BKN039 OVC050 16/08 A3069 RMK AO2 LTG DSNT SE AND W
KCCU 152230Z AUTO 08007KT 10SM VCTS SCT025 BKN041 OVC048 16/07 A3069 RMK AO2 LTG DSNT SE THRU W
KCCU 152212Z AUTO 07009G14KT 030V090 10SM SCT025 BKN036 OVC055 16/08 A3069 RMK AO2 LTG DSNT SE THRU W
KCCU 152152Z AUTO 05004KT 10SM SCT027 BKN044 OVC055 18/08 A3069 RMK AO2 LTG DSNT S AND W
KCCU 152134Z AUTO 03007KT 330V040 10SM SCT030 BKN039 OVC055 17/07 A3069 RMK AO2 LTG DSNT SW AND W
KCCU 152111Z AUTO 34004KT 10SM VCTS BKN030 BKN040 OVC046 16/07 A3069 RMK AO2 LTG DSNT SE AND W
KCCU 152053Z AUTO 00000KT 10SM SCT026 BKN043 OVC110 16/07 A3069 RMK AO2 LTG DSNT NE S AND W
KCCU 152030Z AUTO 32004KT 10SM SCT024 SCT043 BKN060 16/07 A3070 RMK AO2 LTG DSNT SW
KCCU 152012Z AUTO 32003KT 10SM OVC060 15/07 A3071 RMK AO2 LTG DSNT W
KCCU 151953Z AUTO 00000KT 10SM OVC070 14/06 A3071 RMK AO2 LTG DSNT W
KCCU 151929Z AUTO 00000KT 10SM TS SCT075 OVC090 15/08 A3072 RMK AO2 LTG DSNT E SE AND W
KCCU 151912Z AUTO 30004KT 10SM SCT075 OVC085 12/07 A3071 RMK AO2 LTG DSNT SW AND W
KCCU 151853Z AUTO 00000KT 10SM VCTS SCT017 SCT036 OVC085 12/08 A3072 RMK AO2 LTG DSNT N THRU SE
KCCU 151830Z AUTO 00000KT 10SM -RA SCT020 SCT029 OVC039 12/08 A3072 RMK AO2 LTG DSNT SE THRU W
KCCU 151812Z AUTO 30008KT 260V330 10SM BKN042 BKN055 OVC070 12/07 A3073 RMK AO2
KCCU 151752Z AUTO 32003KT 10SM -RA SCT037 SCT048 OVC070 12/06 A3073 RMK AO2 LTG DSNT W
KCCU 151729Z AUTO 32004KT 10SM -RA BKN037 BKN047 OVC060 13/04 A3073 RMK AO2 LTG DSNT NE
KCCU 151712Z AUTO 32005KT 10SM OVC070 13/03 A3073 RMK AO2
KCCU 151654Z AUTO 30003KT 10SM SCT060 OVC070 12/03 A3072 RMK AO2
KCCU 151630Z AUTO 30003KT 10SM SCT060 OVC070 12/03 A3071 RMK AO2
KCCU 151612Z AUTO 31004KT 10SM BKN080 OVC090 13/05 A3071 RMK AO2
KCCU 151554Z AUTO 00000KT 10SM OVC080 15/04 A3070 RMK AO2
KCCU 151530Z AUTO 00000KT 10SM OVC090 13/05 A3071 RMK AO2
KCCU 151512Z AUTO 00000KT 10SM OVC090 13/04 A3071 RMK AO2
KCCU 151454Z AUTO 00000KT 10SM SCT060 OVC090 13/04 A3071 RMK AO2
KCCU 151430Z AUTO 20003KT 10SM SCT060 SCT085 OVC100 12/02 A3071 RMK AO2
KCCU 151412Z AUTO 00000KT 10SM SCT060 BKN085 OVC100 12/03 A3071 RMK AO2
KCCU 151354Z AUTO 00000KT 10SM SCT060 BKN085 OVC100 12/03 A3071 RMK AO2
KCCU 151330Z AUTO 10SM SCT060 OVC085 12/03 A3071 RMK AO2
KCCU 151312Z AUTO 00000KT 10SM BKN060 OVC085 12/03 A3071 RMK AO2
KCCU 151254Z AUTO 17003KT 10SM BKN060 BKN085 OVC095 12/03 A3071 RMK AO2 LTG DSNT NE
KCCU 151230Z AUTO 11003KT 10SM OVC095 12/03 A3070 RMK AO2
KCCU 151212Z AUTO 04003KT 10SM OVC095 12/03 A3069 RMK AO2
KCCU 151154Z AUTO 23003KT 10SM BKN095 12/03 A3069 RMK AO2
KCCU 151130Z AUTO 25006KT 10SM BKN095 12/04 A3069 RMK AO2
KCCU 151112Z AUTO 31006KT 10SM SCT095 12/04 A3069 RMK AO2
KCCU 151054Z AUTO 24003KT 10SM CLR 12/03 A3069 RMK AO2
KCCU 151030Z AUTO 25005KT 10SM CLR 12/03 A3069 RMK AO2
KCCU 151012Z AUTO 30005KT 10SM CLR 12/03 A3069 RMK AO2
KCCU 150954Z AUTO 33007KT 10SM CLR 12/03 A3070 RMK AO2
KCCU 150930Z AUTO 31005KT 10SM CLR 12/03 A3069 RMK AO2
KCCU 150912Z AUTO 34006KT 10SM CLR 12/03 A3069 RMK AO2
KCCU 150854Z AUTO 27005KT 10SM CLR 12/03 A3070 RMK AO2
KCCU 150830Z AUTO 34006KT 10SM SCT050 12/02 A3071 RMK AO2
KCCU 150812Z AUTO 08004KT 10SM BKN050 13/03 A3071 RMK AO2
KCCU 150754Z AUTO 13004KT 10SM SCT044 BKN050 13/03 A3071 RMK AO2 LTG DSNT W
KCCU 150730Z AUTO 28004KT 10SM SCT048 SCT060 BKN090 13/03 A3072 RMK AO2 LTG DSNT W
KCCU 150712Z AUTO 27004KT 10SM RA SCT046 BKN075 OVC085 13/03 A3072 RMK AO2
KCCU 150654Z AUTO 27006KT 10SM BKN046 BKN070 OVC085 14/03 A3072 RMK AO2
KCCU 150630Z AUTO 26008KT 10SM OVC046 15/03 A3072 RMK AO2
KCCU 150612Z AUTO 24007KT 10SM OVC044 15/03 A3073 RMK AO2
KCCU 150554Z AUTO 27009KT 10SM OVC046 15/03 A3072 RMK AO2
KCCU 150530Z AUTO 25010KT 10SM BKN050 OVC060 15/02 A3072 RMK AO2
KCCU 150512Z AUTO 26008G16KT 10SM OVC050 15/02 A3072 RMK AO2
KCCU 150454Z AUTO 24006KT 10SM SCT048 OVC055 16/03 A3072 RMK AO2
KCCU 150430Z AUTO 18007KT 10SM BKN065 OVC075 16/02 A3072 RMK AO2
KCCU 150412Z AUTO 14005KT 10SM SCT065 BKN075 OVC100 16/03 A3073 RMK AO2
KCCU 150354Z AUTO 28007G15KT 10SM BKN075 OVC110 16/03 A3072 RMK AO2
KCCU 150330Z AUTO 17008KT 10SM BKN110 16/03 A3071 RMK AO2
KCCU 150312Z AUTO 17011G15KT 100V180 10SM BKN100 16/02 A3069 RMK AO2
KCCU 150254Z AUTO 13009G16KT 10SM OVC100 16/01 A3069 RMK AO2
KCCU 150230Z AUTO 11007KT 10SM BKN100 18/00 A3069 RMK AO2
KCCU 150212Z AUTO 10004KT 10SM SCT120 18/00 A3069 RMK AO2
KCCU 150154Z AUTO 10SM BKN120 18/00 A3069 RMK AO2
KCCU 150130Z AUTO 09008G15KT 10SM BKN120 18/00 A3069 RMK AO2
KCCU 150112Z AUTO 03005KT 10SM SCT120 20/M01 A3069 RMK AO2
KCCU 150054Z AUTO 35003KT 10SM BKN120 20/M01 A3069 RMK AO2
KCCU 150030Z AUTO 33003KT 10SM SCT080 OVC120 22/M01 A3069 RMK AO2
KCCU 150012Z AUTO 34004G16KT 10SM SCT080 SCT120 20/M01 A3069 RMK AO2
KCCU 142354Z AUTO 10SM SCT120 20/M02 A3069 RMK AO2
KCCU 142330Z AUTO 10SM SCT110 20/M03 A3069 RMK AO2
KCCU 142312Z AUTO 30013G16KT 10SM SCT100 23/M02 A3069 RMK AO2
KCCU 142254Z AUTO 28006G16KT 10SM SCT110 22/M03 A3069 RMK AO2
KCCU 142230Z AUTO 01007KT 10SM CLR 22/M02 A3071 RMK AO2
KCCU 142212Z AUTO 34006G17KT 10SM CLR 23/M01 A3071 RMK AO2
KCCU 142154Z AUTO 30010G15KT 10SM CLR 22/M01 A3071 RMK AO2
KCCU 142130Z AUTO 10SM SCT095 20/M04 A3072 RMK AO2
KCCU 142112Z AUTO 10SM SCT085 22/M03 A3072 RMK AO2 LTG DSNT W
KCCU 142054Z AUTO 33006KT 10SM BKN085 20/M02 A3073 RMK AO2 LTG DSNT W
KCCU 142030Z AUTO 28008KT 10SM BKN085 21/M01 A3073 RMK AO2 LTG DSNT W
KCCU 142012Z AUTO 34007G14KT 280V010 10SM SCT065 OVC075 18/00 A3074 RMK AO2 LTG DSNT W
KCCU 141954Z AUTO 30010G16KT 10SM BKN075 BKN085 18/00 A3075 RMK AO2
KCCU 141930Z AUTO 35007KT 300V010 10SM SCT080 20/00 A3075 RMK AO2 LTG DSNT W
KCCU 141912Z AUTO 31007KT 10SM OVC080 19/M01 A3075 RMK AO2 LTG DSNT W
KCCU 141854Z AUTO 35005KT 10SM OVC080 18/00 A3076 RMK AO2
KCCU 141830Z AUTO 34005KT 10SM OVC080 17/M01 A3076 RMK AO2 LTG DSNT W
KCCU 141812Z AUTO 33005KT 10SM OVC080 18/00 A3076 RMK AO2 LTG DSNT W
KCCU 141754Z AUTO 34004KT 10SM OVC080 17/M01 A3076 RMK AO2
KCCU 141730Z AUTO 10005KT 10SM OVC080 17/01 A3076 RMK AO2 LTG DSNT W
KCCU 141712Z AUTO 34003KT 10SM BKN080 16/00 A3076 RMK AO2 LTG DSNT W
KCCU 141654Z AUTO 31006KT 10SM OVC065 16/00 A3075 RMK AO2 LTG DSNT W
KCCU 141630Z AUTO 29005KT 10SM BKN065 15/00 A3075 RMK AO2
KCCU 141612Z AUTO 10SM BKN065 15/01 A3075 RMK AO2
KCCU 141554Z AUTO 34007G14KT 10SM SCT065 15/00 A3075 RMK AO2
KCCU 141530Z AUTO 33006KT 10SM CLR 15/01 A3075 RMK AO2
KCCU 141512Z AUTO 32003KT 10SM CLR 16/04 A3076 RMK AO2
KCCU 141454Z AUTO 28003KT 10SM CLR 15/06 A3075 RMK AO2
KCCU 141430Z AUTO 10SM CLR 15/06 A3075 RMK AO2
KCCU 141412Z AUTO 00000KT 10SM CLR 15/06 A3075 RMK AO2
KCCU 141354Z AUTO 00000KT 10SM CLR 15/06 A3075 RMK AO2
KCCU 141330Z AUTO 00000KT 10SM CLR 13/05 A3075 RMK AO2
KCCU 141312Z AUTO 00000KT 10SM CLR 13/05 A3075 RMK AO2
KCCU 141254Z AUTO 15003KT 10SM CLR 12/05 A3074 RMK AO2
KCCU 141230Z AUTO 13003KT 10SM CLR 12/05 A3074 RMK AO2
KCCU 141212Z AUTO 35003KT 10SM CLR 12/05 A3073 RMK AO2
KCCU 141154Z AUTO 18004KT 10SM CLR 12/04 A3073 RMK AO2
KCCU 141130Z AUTO 20004KT 10SM SCT070 12/05 A3073 RMK AO2